Terminal Aerodrome Forecast
Issued by NWS

Home | Current Version | Previous Version | Graphics & Text | Print | Product List | Glossary On
Versions: 1 2 3 4 5 6 7 8 9 10 11 12 13 14
112
FTUS43 KGRB 092340
TAFATW
TAF
KATW 092340Z 1000/1024 33010G18KT P6SM BKN035
      TEMPO 1000/1002 4SM -SN BKN021
     FM100400 32011G17KT P6SM BKN040
      TEMPO 1008/1012 SCT040
     FM101400 32012G20KT P6SM OVC050=

USA.gov is the U.S. government's official web portal to all federal, state and local government web resources and services.